Time;durP1;ratioP1;P1;durP2;ratioP2;P2;SDS_P1;SDS_P2;PMS_P1;PMS_P2;Temp;Humidity;BMP_temperature;BMP_pressure;BME280_temperature;BME280_humidity;BME280_pressure;Samples;Min_cycle;Max_cycle;Signal;HPM_P1;HPM_P2
2021/10/23 00:02:17;;;;;;;;;10.25;8.50;;;;;;;;5016295;28;45307;-65
2021/10/23 00:04:42;;;;;;;;;12.75;10.00;;;;;;;;5016522;28;45270;-65
2021/10/23 00:07:07;;;;;;;;;17.75;17.25;;;;;;;;5016825;28;45223;-65
2021/10/23 00:09:33;;;;;;;;;11.25;9.75;;;;;;;;5016450;28;45571;-65
2021/10/23 00:11:58;;;;;;;;;8.75;7.00;;;;;;;;5015346;28;45946;-65
2021/10/23 00:14:23;;;;;;;;;10.50;9.50;;;;;;;;5016265;28;45380;-65
2021/10/23 00:16:48;;;;;;;;;10.00;9.25;;;;;;;;5016565;28;45367;-64
2021/10/23 00:19:14;;;;;;;;;9.50;6.75;;;;;;;;5016184;28;45423;-65
2021/10/23 00:21:39;;;;;;;;;10.75;8.25;;;;;;;;5015874;28;45273;-65
2021/10/23 00:24:04;;;;;;;;;11.00;8.25;;;;;;;;5016289;28;45161;-65
2021/10/23 00:26:29;;;;;;;;;10.75;9.25;;;;;;;;5016427;28;45174;-65
2021/10/23 00:28:55;;;;;;;;;10.50;8.00;;;;;;;;5014685;28;46119;-64
2021/10/23 00:31:20;;;;;;;;;12.25;8.50;;;;;;;;5016116;28;45287;-66
2021/10/23 00:33:45;;;;;;;;;7.50;7.50;;;;;;;;5016032;28;45979;-65
2021/10/23 00:36:11;;;;;;;;;7.75;5.75;;;;;;;;5014904;28;45605;-64
2021/10/23 00:38:36;;;;;;;;;11.25;10.50;;;;;;;;5014901;28;47239;-64
2021/10/23 00:41:01;;;;;;;;;10.50;8.75;;;;;;;;5015088;28;45687;-64
2021/10/23 00:43:26;;;;;;;;;12.50;9.25;;;;;;;;5016102;28;45362;-64
2021/10/23 00:45:51;;;;;;;;;5.25;5.25;;;;;;;;5016305;28;45481;-64
2021/10/23 00:48:17;;;;;;;;;9.50;8.00;;;;;;;;5015418;28;45357;-65
2021/10/23 00:50:45;;;;;;;;;11.50;9.00;;;;;;;;5015710;28;45426;-65
2021/10/23 00:53:10;;;;;;;;;13.75;10.50;;;;;;;;5015638;28;45367;-65
2021/10/23 00:55:35;;;;;;;;;12.25;10.00;;;;;;;;5014442;28;45675;-65
2021/10/23 00:58:00;;;;;;;;;11.50;10.00;;;;;;;;5015648;28;45349;-65
2021/10/23 01:00:25;;;;;;;;;11.75;10.25;;;;;;;;5015799;28;45344;-64
2021/10/23 01:02:51;;;;;;;;;12.50;11.75;;;;;;;;5015050;28;45527;-64
2021/10/23 01:05:16;;;;;;;;;10.00;6.50;;;;;;;;5015805;28;45324;-66
2021/10/23 01:07:42;;;;;;;;;8.50;7.25;;;;;;;;5015493;28;45430;-65
2021/10/23 01:10:09;;;;;;;;;7.00;5.75;;;;;;;;5015489;28;45254;-64
2021/10/23 01:12:34;;;;;;;;;9.25;7.25;;;;;;;;5014509;28;45477;-64
2021/10/23 01:15:14;;;;;;;;;7.50;7.25;;;;;;;;5015895;28;45326;-65
2021/10/23 01:17:39;;;;;;;;;10.50;8.75;;;;;;;;5014083;28;47074;-64
2021/10/23 01:20:05;;;;;;;;;9.00;7.75;;;;;;;;5015630;28;45398;-64
2021/10/23 01:22:30;;;;;;;;;8.25;7.00;;;;;;;;5016011;28;45338;-64
2021/10/23 01:24:56;;;;;;;;;8.50;7.75;;;;;;;;5014643;28;45241;-64
2021/10/23 01:27:21;;;;;;;;;6.75;6.50;;;;;;;;5013927;28;46024;-64
2021/10/23 01:29:46;;;;;;;;;10.50;7.75;;;;;;;;5015538;28;45536;-65
2021/10/23 01:32:12;;;;;;;;;7.25;7.25;;;;;;;;5015470;28;45226;-63
2021/10/23 01:34:37;;;;;;;;;11.00;7.00;;;;;;;;5015757;28;45527;-65
2021/10/23 01:37:03;;;;;;;;;7.25;6.25;;;;;;;;5015270;28;45449;-64
2021/10/23 01:39:31;;;;;;;;;6.75;6.75;;;;;;;;5015021;28;45342;-65
2021/10/23 01:41:57;;;;;;;;;6.50;6.00;;;;;;;;5014939;28;45452;-65
2021/10/23 01:44:23;;;;;;;;;7.00;5.50;;;;;;;;5014999;28;45476;-64
2021/10/23 01:46:48;;;;;;;;;7.25;6.00;;;;;;;;5014889;28;45348;-65
2021/10/23 01:49:14;;;;;;;;;8.25;6.00;;;;;;;;5014838;28;45409;-65
2021/10/23 01:51:39;;;;;;;;;6.00;5.00;;;;;;;;5014877;28;45383;-65
2021/10/23 01:54:05;;;;;;;;;6.25;5.25;;;;;;;;5015365;28;45521;-65
2021/10/23 01:56:31;;;;;;;;;7.75;6.00;;;;;;;;5014855;28;46444;-65
2021/10/23 01:58:56;;;;;;;;;8.00;6.00;;;;;;;;5014840;28;45247;-65
2021/10/23 02:01:21;;;;;;;;;4.75;4.75;;;;;;;;5015186;28;45300;-65
2021/10/23 02:03:47;;;;;;;;;8.75;7.00;;;;;;;;5015565;28;45450;-64
2021/10/23 02:06:12;;;;;;;;;6.50;5.50;;;;;;;;5015177;28;45725;-64
2021/10/23 02:08:37;;;;;;;;;7.25;6.50;;;;;;;;5014092;28;45406;-66
2021/10/23 02:11:03;;;;;;;;;8.75;7.00;;;;;;;;5014944;28;45385;-65
2021/10/23 02:13:28;;;;;;;;;9.25;6.75;;;;;;;;5015163;28;45398;-66
2021/10/23 02:15:53;;;;;;;;;10.50;8.25;;;;;;;;5018055;28;45315;-66
2021/10/23 02:18:19;;;;;;;;;7.00;5.75;;;;;;;;5018005;28;45435;-65
2021/10/23 02:20:44;;;;;;;;;8.00;6.25;;;;;;;;5018110;28;45275;-65
2021/10/23 02:23:09;;;;;;;;;8.00;6.25;;;;;;;;5016907;28;45477;-65
2021/10/23 02:25:34;;;;;;;;;9.25;6.25;;;;;;;;5018139;28;46517;-65
2021/10/23 02:28:00;;;;;;;;;5.50;5.00;;;;;;;;5018132;28;45199;-64
2021/10/23 02:30:25;;;;;;;;;7.50;6.00;;;;;;;;5018152;28;45278;-65
2021/10/23 02:32:51;;;;;;;;;8.00;6.00;;;;;;;;5016917;28;45634;-65
2021/10/23 02:35:17;;;;;;;;;8.00;6.00;;;;;;;;5018282;28;45562;-64
2021/10/23 02:37:42;;;;;;;;;8.00;8.00;;;;;;;;5018998;28;45440;-65
2021/10/23 02:40:08;;;;;;;;;8.75;7.00;;;;;;;;5017457;28;45486;-64
2021/10/23 02:42:33;;;;;;;;;7.25;7.25;;;;;;;;5018353;28;45414;-65
2021/10/23 02:44:58;;;;;;;;;9.75;7.75;;;;;;;;5017635;28;46555;-66
2021/10/23 02:47:23;;;;;;;;;10.50;7.50;;;;;;;;5017803;28;45502;-65
2021/10/23 02:49:49;;;;;;;;;10.25;8.00;;;;;;;;5017619;28;45347;-65
2021/10/23 02:52:14;;;;;;;;;9.75;8.00;;;;;;;;5017623;28;45312;-65
2021/10/23 02:54:39;;;;;;;;;9.25;6.00;;;;;;;;5017620;28;46690;-65
2021/10/23 02:57:04;;;;;;;;;12.25;7.75;;;;;;;;5017558;28;45344;-65
2021/10/23 02:59:30;;;;;;;;;9.00;7.00;;;;;;;;5017634;28;45415;-64
2021/10/23 03:01:55;;;;;;;;;9.00;8.75;;;;;;;;5017723;28;45502;-65
2021/10/23 03:04:20;;;;;;;;;8.50;8.00;;;;;;;;5015741;28;47063;-65
2021/10/23 03:06:46;;;;;;;;;9.75;7.00;;;;;;;;5017452;28;45360;-64
2021/10/23 03:09:14;;;;;;;;;6.00;6.00;;;;;;;;5017503;28;45329;-64
2021/10/23 03:11:40;;;;;;;;;6.50;4.00;;;;;;;;5017829;28;45525;-65
2021/10/23 03:14:05;;;;;;;;;6.25;6.25;;;;;;;;5017248;28;45202;-64
2021/10/23 03:16:33;;;;;;;;;8.25;6.50;;;;;;;;5017306;28;45153;-64
2021/10/23 03:19:01;;;;;;;;;12.00;8.00;;;;;;;;5016057;28;45424;-66
2021/10/23 03:21:26;;;;;;;;;6.50;5.75;;;;;;;;5017297;28;45284;-66
2021/10/23 03:23:52;;;;;;;;;12.00;7.00;;;;;;;;5016803;28;46163;-66
2021/10/23 03:26:17;;;;;;;;;12.75;7.00;;;;;;;;5015511;28;45553;-64
2021/10/23 03:28:42;;;;;;;;;7.50;6.25;;;;;;;;5017328;28;45209;-64
2021/10/23 03:31:08;;;;;;;;;6.25;6.25;;;;;;;;5016226;28;45330;-64
2021/10/23 03:33:33;;;;;;;;;5.00;4.50;;;;;;;;5015687;28;45471;-64
2021/10/23 03:35:58;;;;;;;;;8.25;6.00;;;;;;;;5016959;28;45174;-64
2021/10/23 03:38:23;;;;;;;;;8.00;6.50;;;;;;;;5017152;28;45223;-65
2021/10/23 03:40:48;;;;;;;;;9.75;7.00;;;;;;;;5017205;28;45285;-64
2021/10/23 03:43:14;;;;;;;;;7.00;6.00;;;;;;;;5016593;28;45301;-64
2021/10/23 03:45:40;;;;;;;;;9.75;7.25;;;;;;;;5017163;28;45182;-65
2021/10/23 03:48:05;;;;;;;;;4.25;4.25;;;;;;;;5016875;28;45472;-64
2021/10/23 03:50:31;;;;;;;;;6.00;6.00;;;;;;;;5016745;28;45577;-64
2021/10/23 03:52:56;;;;;;;;;5.00;5.00;;;;;;;;5016430;28;45439;-64
2021/10/23 03:55:21;;;;;;;;;11.00;7.00;;;;;;;;5016500;28;45341;-64
2021/10/23 03:57:47;;;;;;;;;8.25;7.00;;;;;;;;5016715;28;45375;-64
2021/10/23 04:00:13;;;;;;;;;7.75;5.00;;;;;;;;5016932;28;45373;-65
2021/10/23 04:02:38;;;;;;;;;5.50;3.00;;;;;;;;5015317;28;48385;-65
2021/10/23 04:05:03;;;;;;;;;10.00;6.00;;;;;;;;5016549;28;45483;-65
2021/10/23 04:07:29;;;;;;;;;9.00;6.00;;;;;;;;5016506;28;45308;-66
2021/10/23 04:09:54;;;;;;;;;8.00;6.00;;;;;;;;5016693;28;45322;-65
2021/10/23 04:12:19;;;;;;;;;7.00;4.50;;;;;;;;5016372;28;45544;-66
2021/10/23 04:14:44;;;;;;;;;6.25;5.00;;;;;;;;5016500;28;45394;-65
2021/10/23 04:17:09;;;;;;;;;6.00;5.00;;;;;;;;5017053;28;45313;-65
2021/10/23 04:19:35;;;;;;;;;5.50;4.00;;;;;;;;5016367;28;45443;-66
2021/10/23 04:22:00;;;;;;;;;8.00;7.25;;;;;;;;5016068;28;45386;-65
2021/10/23 04:24:26;;;;;;;;;7.00;5.00;;;;;;;;5016210;28;45298;-64
2021/10/23 04:26:52;;;;;;;;;8.75;6.50;;;;;;;;5014925;28;45313;-66
2021/10/23 04:29:19;;;;;;;;;7.00;5.00;;;;;;;;5016572;28;45526;-66
2021/10/23 04:31:44;;;;;;;;;8.50;6.00;;;;;;;;5016059;28;46303;-65
2021/10/23 04:34:09;;;;;;;;;6.50;6.00;;;;;;;;5015778;28;45335;-65
2021/10/23 04:36:34;;;;;;;;;8.25;6.25;;;;;;;;5015386;28;45235;-65
2021/10/23 04:39:00;;;;;;;;;7.25;5.50;;;;;;;;5016387;28;45312;-64
2021/10/23 04:41:25;;;;;;;;;9.00;7.00;;;;;;;;5015924;28;46677;-66
2021/10/23 04:43:50;;;;;;;;;8.00;7.00;;;;;;;;5015885;28;45240;-65
2021/10/23 04:46:15;;;;;;;;;10.00;7.00;;;;;;;;5016557;28;45440;-65
2021/10/23 04:48:42;;;;;;;;;7.25;6.00;;;;;;;;5016510;28;45448;-66
2021/10/23 04:51:07;;;;;;;;;6.00;5.25;;;;;;;;5015655;28;45389;-65
2021/10/23 04:53:32;;;;;;;;;6.50;6.00;;;;;;;;5015881;28;45296;-64
2021/10/23 04:55:58;;;;;;;;;5.50;5.50;;;;;;;;5016055;28;45434;-63
2021/10/23 04:58:23;;;;;;;;;7.75;7.00;;;;;;;;5016189;28;45264;-65
2021/10/23 05:00:48;;;;;;;;;6.25;6.00;;;;;;;;5015843;28;45328;-65
2021/10/23 05:03:13;;;;;;;;;8.50;7.00;;;;;;;;5014952;28;45472;-64
2021/10/23 05:05:39;;;;;;;;;5.50;5.50;;;;;;;;5016212;28;45603;-64
2021/10/23 05:08:04;;;;;;;;;8.50;6.50;;;;;;;;5016082;28;45588;-64
2021/10/23 05:10:29;;;;;;;;;5.75;5.00;;;;;;;;5015654;28;45800;-65
2021/10/23 05:12:55;;;;;;;;;7.25;5.25;;;;;;;;5015390;28;45305;-65
2021/10/23 05:15:20;;;;;;;;;9.00;6.00;;;;;;;;5015639;28;45420;-65
2021/10/23 05:17:45;;;;;;;;;7.50;5.25;;;;;;;;5015905;28;45419;-65
2021/10/23 05:20:11;;;;;;;;;6.00;6.00;;;;;;;;5015372;28;45565;-64
2021/10/23 05:22:36;;;;;;;;;7.25;4.50;;;;;;;;5015424;28;45262;-64
2021/10/23 05:25:03;;;;;;;;;5.50;4.00;;;;;;;;5015610;28;45281;-65
2021/10/23 05:27:29;;;;;;;;;6.00;4.00;;;;;;;;5015606;28;45342;-65
2021/10/23 05:29:54;;;;;;;;;4.75;4.75;;;;;;;;5015142;28;45987;-65
2021/10/23 05:32:19;;;;;;;;;11.50;6.00;;;;;;;;5015158;28;45273;-65
2021/10/23 05:34:46;;;;;;;;;6.50;5.00;;;;;;;;5015533;28;45312;-66
2021/10/23 05:37:11;;;;;;;;;5.75;5.25;;;;;;;;5015578;28;45369;-65
2021/10/23 05:39:36;;;;;;;;;6.00;5.00;;;;;;;;5014870;28;45406;-65
2021/10/23 05:42:01;;;;;;;;;6.75;5.00;;;;;;;;5015008;28;45273;-67
2021/10/23 05:44:26;;;;;;;;;5.75;5.75;;;;;;;;5015122;28;45441;-64
2021/10/23 05:46:52;;;;;;;;;5.75;5.75;;;;;;;;5013877;28;45399;-66
2021/10/23 05:49:17;;;;;;;;;6.00;5.00;;;;;;;;5018173;28;46108;-64
2021/10/23 05:51:44;;;;;;;;;8.00;4.25;;;;;;;;5018733;28;45410;-66
2021/10/23 05:54:09;;;;;;;;;6.75;4.00;;;;;;;;5018654;28;45395;-65
2021/10/23 05:56:34;;;;;;;;;6.25;5.25;;;;;;;;5019446;28;45513;-64
2021/10/23 05:59:10;;;;;;;;;8.25;5.00;;;;;;;;5019157;28;45434;-65
2021/10/23 06:01:36;;;;;;;;;8.50;4.75;;;;;;;;5018695;28;45371;-65
2021/10/23 06:04:02;;;;;;;;;5.75;4.50;;;;;;;;5018444;28;45463;-65
2021/10/23 06:06:27;;;;;;;;;4.00;3.00;;;;;;;;5017102;28;45199;-65
2021/10/23 06:08:52;;;;;;;;;8.50;6.00;;;;;;;;5018271;28;45587;-63
2021/10/23 06:11:17;;;;;;;;;9.25;5.00;;;;;;;;5018655;28;45261;-64
2021/10/23 06:13:42;;;;;;;;;6.00;4.75;;;;;;;;5018368;28;45211;-64
2021/10/23 06:16:08;;;;;;;;;5.50;5.50;;;;;;;;5018273;28;45301;-63
2021/10/23 06:18:33;;;;;;;;;7.75;5.50;;;;;;;;5017816;28;46618;-65
2021/10/23 06:20:58;;;;;;;;;4.50;3.00;;;;;;;;5016632;28;45317;-64
2021/10/23 06:23:28;;;;;;;;;6.00;6.00;;;;;;;;5018289;28;45441;-65
2021/10/23 06:25:53;;;;;;;;;6.00;5.00;;;;;;;;5018269;28;45535;-65
2021/10/23 06:28:18;;;;;;;;;4.00;4.00;;;;;;;;5018202;28;45432;-64
2021/10/23 06:30:44;;;;;;;;;5.25;4.75;;;;;;;;5017807;28;45321;-66
2021/10/23 06:33:09;;;;;;;;;7.75;3.00;;;;;;;;5017901;28;45224;-66
2021/10/23 06:35:34;;;;;;;;;6.00;4.25;;;;;;;;5018321;28;45386;-65
2021/10/23 06:38:00;;;;;;;;;7.75;5.25;;;;;;;;5018100;28;45776;-63
2021/10/23 06:40:25;;;;;;;;;9.75;4.50;;;;;;;;5018158;28;45379;-66
2021/10/23 06:42:50;;;;;;;;;5.50;4.25;;;;;;;;5018699;28;45318;-65
2021/10/23 06:45:16;;;;;;;;;4.25;4.25;;;;;;;;5017209;28;45481;-65
2021/10/23 06:47:41;;;;;;;;;6.00;5.50;;;;;;;;5017790;28;46986;-63
2021/10/23 06:50:08;;;;;;;;;4.25;3.75;;;;;;;;5017618;28;45208;-65
2021/10/23 06:52:33;;;;;;;;;8.25;5.50;;;;;;;;5017415;28;45246;-66
2021/10/23 06:54:58;;;;;;;;;5.00;3.25;;;;;;;;5017670;28;45217;-65
2021/10/23 06:57:23;;;;;;;;;8.00;6.00;;;;;;;;5017378;28;45406;-66
2021/10/23 06:59:48;;;;;;;;;6.75;6.75;;;;;;;;5016969;28;45345;-66
2021/10/23 07:02:14;;;;;;;;;7.00;6.25;;;;;;;;5017244;28;45525;-64
2021/10/23 07:04:40;;;;;;;;;6.25;6.25;;;;;;;;5017559;28;45268;-65
2021/10/23 07:07:05;;;;;;;;;4.50;4.50;;;;;;;;5017397;28;45470;-65
2021/10/23 07:09:30;;;;;;;;;7.00;4.75;;;;;;;;5015828;28;45762;-65
2021/10/23 07:11:55;;;;;;;;;3.25;3.25;;;;;;;;5017266;28;45333;-64
2021/10/23 07:14:21;;;;;;;;;7.75;6.00;;;;;;;;5017600;28;45513;-65
2021/10/23 07:16:47;;;;;;;;;5.50;5.00;;;;;;;;5016819;28;45463;-65
2021/10/23 07:19:12;;;;;;;;;5.75;5.25;;;;;;;;5017000;28;45285;-65
2021/10/23 07:21:37;;;;;;;;;9.00;5.75;;;;;;;;5016977;28;45573;-64
2021/10/23 07:24:03;;;;;;;;;8.75;8.00;;;;;;;;5017110;28;45866;-65
2021/10/23 07:26:28;;;;;;;;;9.75;6.75;;;;;;;;5016841;28;46467;-66
2021/10/23 07:28:53;;;;;;;;;6.00;5.75;;;;;;;;5016792;28;45481;-64
2021/10/23 07:31:19;;;;;;;;;8.75;7.00;;;;;;;;5015806;28;45428;-66
2021/10/23 07:33:44;;;;;;;;;5.75;5.75;;;;;;;;5017169;28;45331;-64
2021/10/23 07:36:10;;;;;;;;;13.00;10.00;;;;;;;;5015263;28;47914;-65
2021/10/23 07:38:36;;;;;;;;;6.75;5.25;;;;;;;;5016864;28;45456;-65
2021/10/23 07:41:01;;;;;;;;;4.75;4.25;;;;;;;;5017155;28;45272;-65
2021/10/23 07:43:26;;;;;;;;;7.00;5.00;;;;;;;;5016776;28;45268;-65
2021/10/23 07:45:51;;;;;;;;;5.75;5.50;;;;;;;;5016968;28;45403;-66
2021/10/23 07:48:17;;;;;;;;;3.75;3.75;;;;;;;;5016613;28;45314;-65
2021/10/23 07:50:43;;;;;;;;;4.50;4.50;;;;;;;;5016703;28;45426;-67
2021/10/23 07:53:08;;;;;;;;;4.25;4.00;;;;;;;;5015122;28;45292;-64
2021/10/23 07:55:33;;;;;;;;;7.25;6.00;;;;;;;;5016534;28;45439;-64
2021/10/23 07:57:59;;;;;;;;;5.50;5.50;;;;;;;;5014709;28;45429;-65
2021/10/23 08:00:25;;;;;;;;;7.25;4.75;;;;;;;;5016410;28;45388;-65
2021/10/23 08:02:57;;;;;;;;;7.25;4.50;;;;;;;;5016515;28;45253;-65
2021/10/23 08:05:23;;;;;;;;;3.75;3.25;;;;;;;;5016405;28;46095;-64
2021/10/23 08:07:50;;;;;;;;;9.50;4.75;;;;;;;;5015710;28;45379;-65
2021/10/23 08:10:15;;;;;;;;;6.00;6.00;;;;;;;;5015740;28;45309;-66
2021/10/23 08:12:42;;;;;;;;;8.25;4.75;;;;;;;;5013267;28;45622;-65
2021/10/23 08:15:09;;;;;;;;;6.50;4.25;;;;;;;;5016154;28;45350;-64
2021/10/23 08:17:34;;;;;;;;;11.50;8.25;;;;;;;;5015969;28;45277;-64
2021/10/23 08:19:59;;;;;;;;;12.25;8.25;;;;;;;;5016037;28;45413;-65
2021/10/23 08:22:24;;;;;;;;;5.00;5.00;;;;;;;;5016377;28;45643;-66
2021/10/23 08:24:50;;;;;;;;;10.50;7.25;;;;;;;;5014402;28;47851;-67
2021/10/23 08:27:15;;;;;;;;;9.00;6.00;;;;;;;;5015717;28;45383;-66
2021/10/23 08:29:41;;;;;;;;;12.25;8.00;;;;;;;;5015752;28;45360;-65
2021/10/23 08:32:07;;;;;;;;;11.00;7.75;;;;;;;;5014710;28;45487;-66
2021/10/23 08:34:32;;;;;;;;;9.75;6.25;;;;;;;;5016040;28;45416;-67
2021/10/23 08:36:58;;;;;;;;;11.50;6.75;;;;;;;;5016564;28;45377;-66
2021/10/23 08:39:23;;;;;;;;;20.00;18.50;;;;;;;;5016689;28;45355;-65
2021/10/23 08:41:49;;;;;;;;;10.00;7.75;;;;;;;;5015448;28;45679;-66
2021/10/23 08:44:18;;;;;;;;;6.00;4.00;;;;;;;;5015977;28;45738;-66
2021/10/23 08:46:44;;;;;;;;;11.50;8.75;;;;;;;;5016316;28;45446;-65
2021/10/23 08:49:09;;;;;;;;;8.50;6.75;;;;;;;;5016234;28;45483;-66
2021/10/23 08:51:35;;;;;;;;;289.00;261.25;;;;;;;;5019935;28;45658;-78
2021/10/23 08:54:00;;;;;;;;;66.00;51.00;;;;;;;;5017331;28;46689;-77
2021/10/23 08:56:26;;;;;;;;;24.75;21.50;;;;;;;;5017576;28;45281;-79
2021/10/23 08:58:51;;;;;;;;;10.75;8.00;;;;;;;;5017715;28;45349;-78
2021/10/23 09:01:17;;;;;;;;;8.50;7.00;;;;;;;;5017248;28;45550;-81
2021/10/23 09:03:44;;;;;;;;;6.00;4.00;;;;;;;;5018932;28;47267;-78
2021/10/23 09:06:27;;;;;;;;;8.25;7.50;;;;;;;;5020025;28;45356;-81
2021/10/23 09:09:01;;;;;;;;;8.50;8.50;;;;;;;;5016600;28;45289;-77
2021/10/23 09:11:30;;;;;;;;;7.50;6.00;;;;;;;;5016491;28;45648;-77
2021/10/23 09:13:55;;;;;;;;;5.00;5.00;;;;;;;;5016086;28;45765;-75
2021/10/23 09:16:20;;;;;;;;;10.25;7.50;;;;;;;;5017047;28;45384;-76
2021/10/23 09:18:47;;;;;;;;;3.50;2.50;;;;;;;;5018290;28;45280;-77
2021/10/23 09:21:23;;;;;;;;;5.50;4.25;;;;;;;;5017232;28;45561;-76
2021/10/23 09:23:50;;;;;;;;;5.25;5.25;;;;;;;;5017271;28;46373;-79
2021/10/23 09:26:35;;;;;;;;;7.75;6.00;;;;;;;;5019096;28;45438;-78
2021/10/23 09:29:14;;;;;;;;;8.75;5.00;;;;;;;;5019407;28;45402;-81
2021/10/23 09:31:44;;;;;;;;;8.25;5.25;;;;;;;;5014490;28;45261;-77
2021/10/23 09:34:10;;;;;;;;;6.00;6.00;;;;;;;;5015779;28;45305;-77
2021/10/23 09:36:40;;;;;;;;;5.75;5.00;;;;;;;;5015444;28;45345;-74
2021/10/23 09:39:10;;;;;;;;;6.25;5.00;;;;;;;;5022457;28;45369;-86
2021/10/23 09:41:36;;;;;;;;;10.50;8.50;;;;;;;;5025411;28;45319;-83
2021/10/23 09:44:19;;;;;;;;;6.50;6.25;;;;;;;;5021010;28;48234;-79
2021/10/23 09:46:54;;;;;;;;;6.00;5.25;;;;;;;;5021996;28;46163;-85
2021/10/23 09:49:21;;;;;;;;;7.75;6.50;;;;;;;;5022309;28;45482;-81
2021/10/23 09:51:46;;;;;;;;;13.00;9.25;;;;;;;;5020301;28;45304;-84
2021/10/23 09:54:15;;;;;;;;;7.50;7.00;;;;;;;;5024903;28;45437;-80
2021/10/23 09:56:48;;;;;;;;;6.25;5.00;;;;;;;;5019272;28;45233;-84
2021/10/23 09:59:24;;;;;;;;;6.50;5.25;;;;;;;;5021081;28;45231;-82
2021/10/23 10:01:50;;;;;;;;;5.25;5.25;;;;;;;;5021651;28;45164;-81
2021/10/23 10:04:16;;;;;;;;;14.00;14.00;;;;;;;;5023453;28;45411;-83
2021/10/23 10:06:42;;;;;;;;;5.00;5.00;;;;;;;;5020539;28;45450;-81
2021/10/23 10:09:08;;;;;;;;;9.00;7.00;;;;;;;;5021211;28;45355;-85
2021/10/23 10:11:36;;;;;;;;;7.50;7.50;;;;;;;;5022420;28;45434;-83
2021/10/23 10:14:05;;;;;;;;;6.75;4.00;;;;;;;;5025421;28;45496;-80
2021/10/23 10:16:31;;;;;;;;;7.25;6.00;;;;;;;;5026929;28;45315;-85
2021/10/23 10:18:56;;;;;;;;;5.75;5.25;;;;;;;;5032684;28;45331;-87
2021/10/23 10:21:22;;;;;;;;;6.50;5.00;;;;;;;;5026296;28;45467;-80
2021/10/23 10:23:51;;;;;;;;;11.00;8.75;;;;;;;;5031229;28;45430;-80
2021/10/23 10:26:36;;;;;;;;;5.00;3.25;;;;;;;;5035111;28;44840;-83
2021/10/23 10:29:28;;;;;;;;;5.75;5.50;;;;;;;;5036001;28;44693;-80
2021/10/23 10:32:20;;;;;;;;;12.50;10.50;;;;;;;;5031964;28;44849;-79
2021/10/23 10:40:17;;;;;;;;;10.50;6.50;;;;;;;;5033466;28;45358;-81
2021/10/23 10:42:55;;;;;;;;;7.50;6.75;;;;;;;;5028312;28;45301;-79
2021/10/23 10:45:25;;;;;;;;;7.25;6.25;;;;;;;;5029446;28;45531;-85
2021/10/23 10:48:17;;;;;;;;;10.25;7.75;;;;;;;;5019975;28;45313;-84
2021/10/23 10:50:44;;;;;;;;;13.50;10.00;;;;;;;;5018514;28;45191;-77
2021/10/23 10:53:16;;;;;;;;;10.25;7.25;;;;;;;;5022064;28;45168;-80
2021/10/23 10:55:43;;;;;;;;;8.25;7.75;;;;;;;;5024427;28;45322;-80
2021/10/23 10:58:09;;;;;;;;;9.25;7.50;;;;;;;;5024370;28;45245;-80
2021/10/23 11:00:53;;;;;;;;;13.75;10.00;;;;;;;;5025286;28;44677;-82
2021/10/23 11:03:37;;;;;;;;;13.50;12.50;;;;;;;;5025834;28;45284;-80
2021/10/23 11:06:21;;;;;;;;;15.50;10.75;;;;;;;;5025808;28;45430;-79
2021/10/23 11:08:46;;;;;;;;;13.50;11.75;;;;;;;;5022673;28;45324;-80
2021/10/23 11:11:11;;;;;;;;;14.00;12.00;;;;;;;;5024165;28;45268;-82
2021/10/23 11:13:44;;;;;;;;;13.75;11.75;;;;;;;;5020267;28;45413;-78
2021/10/23 11:16:42;;;;;;;;;16.50;15.75;;;;;;;;5019563;28;47999;-79
2021/10/23 11:19:08;;;;;;;;;15.50;12.50;;;;;;;;5004665;28;45259;-79
2021/10/23 11:21:34;;;;;;;;;12.25;10.75;;;;;;;;5024769;28;45192;-76
2021/10/23 11:23:59;;;;;;;;;8.75;8.25;;;;;;;;5020983;28;45642;-80
2021/10/23 11:26:24;;;;;;;;;14.50;12.00;;;;;;;;5018980;28;48213;-80
2021/10/23 11:28:50;;;;;;;;;12.00;12.00;;;;;;;;5022177;28;45457;-82
2021/10/23 11:31:19;;;;;;;;;13.50;12.75;;;;;;;;5021399;28;45390;-79
2021/10/23 11:33:44;;;;;;;;;9.00;8.00;;;;;;;;5020774;28;45459;-78
2021/10/23 11:36:13;;;;;;;;;12.25;9.50;;;;;;;;5020031;28;45356;-80
2021/10/23 11:38:39;;;;;;;;;10.75;10.75;;;;;;;;5021381;28;45412;-85
2021/10/23 11:41:04;;;;;;;;;10.50;9.25;;;;;;;;5022505;28;45276;-83
2021/10/23 11:43:32;;;;;;;;;16.25;13.75;;;;;;;;5023806;28;45367;-82
2021/10/23 11:45:57;;;;;;;;;17.75;15.75;;;;;;;;5019890;28;45412;-78
2021/10/23 11:48:23;;;;;;;;;13.25;13.25;;;;;;;;5023565;28;45337;-80
2021/10/23 11:50:50;;;;;;;;;14.75;13.75;;;;;;;;5029633;28;45414;-77
2021/10/23 11:53:21;;;;;;;;;11.50;11.50;;;;;;;;5030956;28;45354;-79
2021/10/23 11:55:48;;;;;;;;;19.25;17.75;;;;;;;;5029369;28;45326;-80
2021/10/23 11:58:17;;;;;;;;;15.50;14.50;;;;;;;;5028742;28;45390;-82
2021/10/23 12:00:44;;;;;;;;;20.25;14.25;;;;;;;;5027807;28;45272;-81
2021/10/23 12:03:10;;;;;;;;;12.50;11.25;;;;;;;;5024261;28;45281;-82
2021/10/23 12:05:43;;;;;;;;;20.00;17.75;;;;;;;;5020362;28;46062;-83
2021/10/23 12:08:08;;;;;;;;;18.25;16.00;;;;;;;;5019595;28;45374;-80
2021/10/23 12:10:34;;;;;;;;;16.25;14.50;;;;;;;;5019517;28;45420;-81
2021/10/23 12:13:12;;;;;;;;;14.75;12.75;;;;;;;;5021973;28;45214;-80
2021/10/23 12:15:37;;;;;;;;;14.25;13.75;;;;;;;;5018490;28;48192;-77
2021/10/23 12:18:06;;;;;;;;;14.50;14.00;;;;;;;;5020023;28;45457;-80
2021/10/23 12:20:35;;;;;;;;;14.00;13.25;;;;;;;;5019601;28;45254;-79
2021/10/23 12:23:02;;;;;;;;;15.00;13.50;;;;;;;;5020360;28;45563;-80
2021/10/23 12:25:30;;;;;;;;;15.50;13.50;;;;;;;;5019116;28;46151;-81
2021/10/23 12:28:00;;;;;;;;;13.00;11.25;;;;;;;;5018615;28;45327;-83
2021/10/23 12:30:25;;;;;;;;;10.00;7.25;;;;;;;;5018343;28;45331;-81
2021/10/23 12:32:50;;;;;;;;;17.00;14.75;;;;;;;;5018810;28;45631;-82
2021/10/23 12:35:22;;;;;;;;;19.25;12.25;;;;;;;;5022450;28;46153;-82
2021/10/23 12:37:51;;;;;;;;;13.75;11.50;;;;;;;;5024665;28;45262;-82
2021/10/23 12:40:23;;;;;;;;;10.00;9.25;;;;;;;;5023360;28;45309;-81
2021/10/23 12:42:50;;;;;;;;;16.75;11.00;;;;;;;;5022881;28;45297;-79
2021/10/23 12:45:17;;;;;;;;;13.75;13.75;;;;;;;;5031050;28;46436;-78
2021/10/23 12:47:43;;;;;;;;;12.00;11.75;;;;;;;;5031134;28;45315;-77
2021/10/23 12:50:09;;;;;;;;;14.75;12.25;;;;;;;;5023511;28;45341;-81
2021/10/23 12:52:36;;;;;;;;;16.75;14.50;;;;;;;;5020044;28;45320;-81
2021/10/23 12:55:02;;;;;;;;;17.75;15.25;;;;;;;;5019808;28;45513;-83
2021/10/23 12:57:29;;;;;;;;;21.50;17.50;;;;;;;;5018886;28;45193;-82
2021/10/23 12:59:54;;;;;;;;;8.50;8.50;;;;;;;;5018623;28;45234;-80
2021/10/23 13:02:19;;;;;;;;;15.25;13.25;;;;;;;;5018955;28;45348;-82
2021/10/23 13:04:45;;;;;;;;;19.00;15.00;;;;;;;;5016789;28;46326;-77
2021/10/23 13:07:10;;;;;;;;;14.25;12.75;;;;;;;;5015515;28;45236;-73
2021/10/23 13:09:35;;;;;;;;;21.00;19.25;;;;;;;;5015347;28;45283;-74
2021/10/23 13:12:00;;;;;;;;;15.50;13.75;;;;;;;;5014068;28;45283;-73
2021/10/23 13:14:26;;;;;;;;;15.00;12.00;;;;;;;;5015170;28;46098;-75
2021/10/23 13:16:51;;;;;;;;;9.50;8.00;;;;;;;;5015077;28;45308;-74
2021/10/23 13:19:16;;;;;;;;;10.00;9.00;;;;;;;;5015111;28;45419;-74
2021/10/23 13:21:42;;;;;;;;;10.25;9.75;;;;;;;;5015574;28;45541;-72
2021/10/23 13:24:07;;;;;;;;;10.50;7.50;;;;;;;;5015054;28;45545;-69
2021/10/23 13:26:32;;;;;;;;;6.25;5.50;;;;;;;;5014590;28;45357;-71
2021/10/23 13:28:57;;;;;;;;;6.75;5.00;;;;;;;;5015001;28;45702;-78
2021/10/23 13:31:23;;;;;;;;;4.75;4.75;;;;;;;;5015367;28;45466;-68
2021/10/23 13:33:48;;;;;;;;;7.00;6.25;;;;;;;;5013469;28;46946;-70
2021/10/23 13:36:13;;;;;;;;;13.75;9.00;;;;;;;;5014994;28;45365;-72
2021/10/23 13:38:39;;;;;;;;;11.50;11.50;;;;;;;;5015204;28;45465;-69
2021/10/23 13:41:05;;;;;;;;;10.00;10.00;;;;;;;;5014749;28;45699;-72
2021/10/23 13:43:30;;;;;;;;;12.00;10.00;;;;;;;;5014939;28;45544;-78
2021/10/23 13:45:56;;;;;;;;;23.50;19.00;;;;;;;;5009196;28;45440;-73
2021/10/23 13:48:21;;;;;;;;;13.50;11.50;;;;;;;;5005623;28;45317;-75
2021/10/23 13:50:47;;;;;;;;;10.00;10.00;;;;;;;;4997337;28;45293;-71
2021/10/23 13:53:13;;;;;;;;;13.25;10.50;;;;;;;;5010054;28;45425;-71
2021/10/23 13:55:38;;;;;;;;;16.25;15.25;;;;;;;;5014031;28;45520;-72
2021/10/23 13:58:04;;;;;;;;;32.75;25.75;;;;;;;;5015101;28;45231;-72
2021/10/23 14:00:30;;;;;;;;;17.25;14.75;;;;;;;;5015309;28;45425;-76
2021/10/23 14:02:57;;;;;;;;;8.00;8.00;;;;;;;;5014747;28;45277;-75
2021/10/23 14:05:22;;;;;;;;;9.00;8.25;;;;;;;;5014957;28;45363;-75
2021/10/23 14:07:47;;;;;;;;;4.00;2.50;;;;;;;;5014234;28;45351;-75
2021/10/23 14:10:12;;;;;;;;;8.75;7.00;;;;;;;;5018708;28;45409;-75
2021/10/23 14:12:38;;;;;;;;;8.50;6.75;;;;;;;;5018200;28;45422;-76
2021/10/23 14:15:04;;;;;;;;;9.00;6.00;;;;;;;;5017948;28;45347;-73
2021/10/23 14:17:29;;;;;;;;;8.75;6.50;;;;;;;;5018448;28;45441;-75
2021/10/23 14:19:54;;;;;;;;;5.00;5.00;;;;;;;;5016635;28;45520;-72
2021/10/23 14:22:21;;;;;;;;;4.50;3.00;;;;;;;;5017031;28;46970;-73
2021/10/23 14:24:52;;;;;;;;;3.25;3.25;;;;;;;;5018254;28;45299;-73
2021/10/23 14:27:27;;;;;;;;;5.00;5.00;;;;;;;;5017673;28;45302;-73
2021/10/23 14:29:52;;;;;;;;;6.50;6.00;;;;;;;;5017814;28;45406;-75
2021/10/23 14:32:17;;;;;;;;;6.00;5.50;;;;;;;;5017337;28;45337;-72
2021/10/23 14:34:43;;;;;;;;;6.00;5.00;;;;;;;;5017925;28;45400;-71
2021/10/23 14:37:08;;;;;;;;;6.25;4.25;;;;;;;;5017765;28;45411;-73
2021/10/23 14:39:33;;;;;;;;;6.75;5.00;;;;;;;;5017646;28;45506;-77